DW8095 Weather Reports


Display with metric or nautical units.
time (UTC)temp
F
wind
direction
speed
MPH
gust
MPH
rain 1hr
in
rain 24hr
in
rain mn
in
humidity
%
barometer
mb
20200406013015 52 120 4.0 0.0 0.00 0.00 0.00 44 1018.0
20200406011545 52 115 3.0 0.0 0.00 0.00 0.00 44 1018.2
20200406010100 52 109 0.0 0.0 0.00 0.00 0.00 45 1018.3
20200406004640 53 98 0.0 0.0 0.00 0.00 0.00 44 1018.4
20200406003207 53 98 0.0 0.0 0.00 0.00 0.00 44 1018.5
20200406000205 55 98 0.0 0.0 0.00 0.00 0.00 39 1018.8
20200405234650 56 121 0.0 0.0 0.00 0.00 0.00 37 1018.9
20200405231516 56 161 0.0 0.0 0.00 0.00 0.00 36 1018.8
20200405230152 56 168 3.0 0.0 0.00 0.00 0.00 35 1019.1
20200405223006 57 102 2.0 0.0 0.00 0.00 0.00 37 1019.2
20200405214658 55 5 2.0 0.0 0.00 0.00 0.00 40 1019.4
20200405210104 54 44 6.0 0.0 0.00 0.00 0.00 42 1019.8
20200405203030 54 67 4.0 0.0 0.00 0.00 0.00 42 1020.1
20200405201621 53 11 5.0 0.0 0.00 0.00 0.00 43 1020.1
20200405200011 53 65 5.0 0.0 0.00 0.00 0.00 45 1020.4
20200405194700 52 51 5.0 0.0 0.00 0.00 0.00 47 1020.5
20200405191518 52 98 4.0 0.0 0.00 0.00 0.00 46 1020.7
20200405190205 52 62 4.0 0.0 0.00 0.00 0.00 45 1020.9
20200405183141 51 125 3.0 0.0 0.00 0.00 0.00 49 1021.5
20200405180114 49 40 2.0 0.0 0.00 0.00 0.00 54 1021.7
20200405174550 48 94 2.0 0.0 0.00 0.00 0.00 54 1022.0
20200405171548 47 26 2.0 0.0 0.00 0.00 0.00 56 1022.2
20200405170057 46 360 2.0 0.0 0.00 0.00 0.00 55 1022.6
20200405164505 45 80 3.0 0.0 0.00 0.00 0.00 56 1022.6
20200405163045 45 107 4.0 0.0 0.00 0.00 0.00 58 1022.7
20200405154540 42 119 5.0 0.0 0.00 0.00 0.00 66 1023.0
20200405151514 39 114 4.0 0.0 0.00 0.00 0.00 73 1023.1
20200405150053 38 113 3.0 0.0 0.00 0.00 0.00 76 1023.1
20200405144601 36 112 3.0 0.0 0.00 0.00 0.00 77 1023.2
20200405141547 35 105 2.0 0.0 0.00 0.00 0.00 80 1023.4
20200405140127 34 86 0.0 0.0 0.00 0.00 0.00 84 1023.3
20200405134630 34 117 0.0 0.0 0.00 0.00 0.00 86 1023.4
20200405131551 32 136 0.0 0.0 0.00 0.00 0.00 89 1023.8
20200405124552 30 136 0.0 0.0 0.00 0.00 0.00 90 1023.5
20200405123036 29 136 0.0 0.0 0.00 0.00 0.00 90 1023.4
20200405121655 29 136 0.0 0.0 0.00 0.00 0.00 91 1023.2
20200405114622 28 137 0.0 0.0 0.00 0.00 0.00 91 1023.1
20200405110053 29 249 0.0 0.0 0.00 0.00 0.00 89 1023.2
20200405104647 29 249 0.0 0.0 0.00 0.00 0.00 89 1023.3
20200405100021 29 250 0.0 0.0 0.00 0.00 0.00 88 1022.8
20200405094600 28 250 0.0 0.0 0.00 0.00 0.00 88 1022.5
20200405091536 29 250 0.0 0.0 0.00 0.00 0.00 88 1022.5
20200405090113 30 159 0.0 0.0 0.00 0.00 0.00 89 1022.3
20200405083014 30 240 0.0 0.0 0.00 0.00 0.00 88 1022.4
20200405081606 30 271 0.0 0.0 0.00 0.00 0.00 87 1022.6
20200405080124 30 271 0.0 0.0 0.00 0.00 0.00 86 1022.4
20200405071553 30 271 0.0 0.0 0.00 0.00 0.00 84 1022.4
20200405070115 30 271 0.0 0.0 0.00 0.00 0.00 85 1022.5
20200405064710 30 271 0.0 0.0 0.00 0.00 0.00 87 1022.4
20200405061558 31 271 0.0 0.0 0.00 0.00 0.00 85 1022.2
20200405060057 31 271 0.0 0.0 0.00 0.00 0.00 85 1022.6
20200405051523 31 274 0.0 0.0 0.00 0.00 0.00 82 1022.6
20200405050305 31 274 0.0 0.0 0.00 0.00 0.05 81 1022.7
20200405043008 32 274 0.0 0.0 0.00 0.00 0.05 78 1022.7
20200405041535 32 274 0.0 0.0 0.00 0.00 0.05 78 1022.5
20200405040110 32 274 0.0 0.0 0.00 0.00 0.05 78 1022.2
20200405034743 32 274 0.0 0.0 0.00 0.00 0.05 79 1022.5
20200405033210 32 274 0.0 0.0 0.00 0.00 0.05 78 1022.4
20200405030033 33 267 0.0 0.0 0.00 0.00 0.05 77 1022.7
20200405024650 33 264 0.0 0.0 0.00 0.00 0.05 77 1022.5
20200405023143 34 270 0.0 0.0 0.00 0.00 0.05 74 1022.6
20200405021530 34 271 0.0 0.0 0.00 0.00 0.05 75 1022.5
20200405020059 35 266 0.0 0.0 0.00 0.00 0.05 73 1022.6